Decoded Metar for UNAA (ABAKAN in RUSSIA) (IATA:ABA) | Meteo·Mobile Aviation Weather
aviador You're here:

UNAA Decoded Metar

ABAKAN in RUSSIA
Report Time2019-10-21 06:30:00
UTC Time2019-10-21 07:11:29
Flight Rules vfr VFR
Wind340° at 10 kt
W.Decomp.*RWY 02: 7.3 kt HW 6.8 kt LCW
Visibility9999 m
Phenomena:N/A
Clouds:N/A
Expected CloudBase > 2,800 ft AGL from Temp-Dew spread
CeilingNone
Temp-2°C (ISA -15)
Dew Point-9°C (59% RH)
AAT-8.6°C
QNH1028 hPa
Density Alt-1,549 ft
Elevation804 ft
Report Wrong Elevation
Raw Report
UNAA 210630Z 34005MPS CAVOK M02/M09 Q1028 R02/290055 NOSIG RMK
QFE748=

Extra information for UNAA:More info

Metar Taf Metar & Taf Last 4 Metars F.Rules Stats Wind Profile Meteogram Temp Stats Airport Information Weather charts Add Link Nearby VenuesMetar ALERT Operation Metar Decoded Social comments